Time;durP1;ratioP1;P1;durP2;ratioP2;P2;SDS_P1;SDS_P2;PMS_P1;PMS_P2;Temp;Humidity;BMP_temperature;BMP_pressure;BME280_temperature;BME280_humidity;BME280_pressure;Samples;Min_cycle;Max_cycle;Signal;HPM_P1;HPM_P2
2023/08/07 00:00:33;;;;;;;;;;;;;;;;;;2080543;28;19995;-76
2023/08/07 00:01:54;;;;;;;;;;;;;;;;;;2079440;28;20376;-77
2023/08/07 00:03:18;;;;;;;;;;;;;;;;;;2082145;28;19909;-77
2023/08/07 00:04:39;;;;;;;;;;;;;;;;;;2081696;28;20357;-77
2023/08/07 00:05:59;;;;;;;;;;;;;;;;;;2083160;28;19917;-77
2023/08/07 00:07:20;;;;;;;;;;;;;;;;;;2082081;28;19909;-77
2023/08/07 00:08:41;;;;;;;;;;;;;;;;;;2082042;28;19913;-77
2023/08/07 00:10:03;;;;;;;;;;;;;;;;;;2073717;28;19913;-77
2023/08/07 00:11:23;;;;;;;;;;;;;;;;;;2078704;28;19909;-78
2023/08/07 00:12:44;;;;;;;;;;;;;;;;;;2080618;28;19913;-77
2023/08/07 00:14:05;;;;;;;;;;;;;;;;;;2082555;28;19931;-77
2023/08/07 00:15:25;;;;;;;;;;;;;;;;;;2082179;28;19909;-76
2023/08/07 00:16:46;;;;;;;;;;;;;;;;;;2082684;28;19909;-77
2023/08/07 00:18:07;;;;;;;;;;;;;;;;;;2082631;28;19932;-77
2023/08/07 00:19:28;;;;;;;;;;;;;;;;;;2082660;28;19917;-78
2023/08/07 00:20:49;;;;;;;;;;;;;;;;;;2081931;28;19983;-78
2023/08/07 00:22:10;;;;;;;;;;;;;;;;;;2081796;28;19909;-77
2023/08/07 00:23:31;;;;;;;;;;;;;;;;;;2082618;28;19910;-77
2023/08/07 00:24:51;;;;;;;;;;;;;;;;;;2071952;28;20312;-78
2023/08/07 00:26:12;;;;;;;;;;;;;;;;;;2070829;28;19925;-77
2023/08/07 00:27:33;;;;;;;;;;;;;;;;;;2070888;28;19917;-78
2023/08/07 00:28:54;;;;;;;;;;;;;;;;;;2087079;28;19912;-77
2023/08/07 00:30:15;;;;;;;;;;;;;;;;;;2073524;28;19944;-78
2023/08/07 00:31:35;;;;;;;;;;;;;;;;;;2074264;28;19914;-78
2023/08/07 00:32:56;;;;;;;;;;;;;;;;;;2071087;28;19914;-77
2023/08/07 00:34:17;;;;;;;;;;;;;;;;;;2074558;28;19963;-77
2023/08/07 00:35:37;;;;;;;;;;;;;;;;;;2078034;28;19920;-78
2023/08/07 00:36:58;;;;;;;;;;;;;;;;;;2082932;28;19914;-77
2023/08/07 00:38:19;;;;;;;;;;;;;;;;;;2081943;28;20340;-77
2023/08/07 00:39:39;;;;;;;;;;;;;;;;;;2081179;28;19976;-78
2023/08/07 00:41:00;;;;;;;;;;;;;;;;;;2081651;28;20308;-77
2023/08/07 00:42:21;;;;;;;;;;;;;;;;;;2082090;28;19909;-76
2023/08/07 00:43:42;;;;;;;;;;;;;;;;;;2083109;28;20331;-77
2023/08/07 00:45:02;;;;;;;;;;;;;;;;;;2082869;28;19916;-78
2023/08/07 00:46:23;;;;;;;;;;;;;;;;;;2081691;28;19917;-77
2023/08/07 00:47:44;;;;;;;;;;;;;;;;;;2078727;28;20442;-77
2023/08/07 00:49:04;;;;;;;;;;;;;;;;;;2074806;28;19921;-77
2023/08/07 00:50:25;;;;;;;;;;;;;;;;;;2081729;28;20400;-77
2023/08/07 00:51:46;;;;;;;;;;;;;;;;;;2081531;28;19929;-77
2023/08/07 00:53:07;;;;;;;;;;;;;;;;;;2081707;28;19913;-77
2023/08/07 00:54:27;;;;;;;;;;;;;;;;;;2081302;28;19909;-77
2023/08/07 00:55:48;;;;;;;;;;;;;;;;;;2080471;28;19909;-77
2023/08/07 00:57:09;;;;;;;;;;;;;;;;;;2081837;28;19913;-77
2023/08/07 00:58:30;;;;;;;;;;;;;;;;;;2082135;28;19913;-77
2023/08/07 00:59:50;;;;;;;;;;;;;;;;;;2081934;28;19913;-77
2023/08/07 01:01:11;;;;;;;;;;;;;;;;;;2072057;28;19917;-77
2023/08/07 01:02:32;;;;;;;;;;;;;;;;;;2070693;28;19932;-77
2023/08/07 01:03:53;;;;;;;;;;;;;;;;;;2079417;28;19909;-77
2023/08/07 01:05:13;;;;;;;;;;;;;;;;;;2072060;28;19909;-77
2023/08/07 01:06:34;;;;;;;;;;;;;;;;;;2070909;28;19921;-78
2023/08/07 01:07:55;;;;;;;;;;;;;;;;;;2073257;28;19914;-77
2023/08/07 01:09:15;;;;;;;;;;;;;;;;;;2074900;28;19909;-77
2023/08/07 01:10:36;;;;;;;;;;;;;;;;;;2072773;28;19914;-77
2023/08/07 01:11:57;;;;;;;;;;;;;;;;;;2073173;28;19913;-77
2023/08/07 01:13:18;;;;;;;;;;;;;;;;;;2081408;28;19968;-77
2023/08/07 01:14:38;;;;;;;;;;;;;;;;;;2074953;28;19910;-77
2023/08/07 01:15:59;;;;;;;;;;;;;;;;;;2081585;28;19932;-78
2023/08/07 01:17:20;;;;;;;;;;;;;;;;;;2073139;28;19920;-78
2023/08/07 01:18:40;;;;;;;;;;;;;;;;;;2073768;28;19925;-77
2023/08/07 01:20:01;;;;;;;;;;;;;;;;;;2073374;28;19913;-77
2023/08/07 01:21:22;;;;;;;;;;;;;;;;;;2073313;28;19926;-77
2023/08/07 01:22:43;;;;;;;;;;;;;;;;;;2072060;28;19917;-78
2023/08/07 01:24:04;;;;;;;;;;;;;;;;;;2073817;28;19921;-77
2023/08/07 01:25:24;;;;;;;;;;;;;;;;;;2074431;28;20419;-76
2023/08/07 01:26:45;;;;;;;;;;;;;;;;;;2074696;28;19909;-77
2023/08/07 01:28:07;;;;;;;;;;;;;;;;;;2073224;28;20262;-77
2023/08/07 01:29:27;;;;;;;;;;;;;;;;;;2073170;28;20281;-77
2023/08/07 01:30:48;;;;;;;;;;;;;;;;;;2081024;28;19920;-77
2023/08/07 01:32:09;;;;;;;;;;;;;;;;;;2066177;28;20337;-77
2023/08/07 01:33:32;;;;;;;;;;;;;;;;;;2065341;28;19933;-77
2023/08/07 01:34:52;;;;;;;;;;;;;;;;;;2065870;28;20448;-77
2023/08/07 01:36:13;;;;;;;;;;;;;;;;;;2063780;28;19910;-77
2023/08/07 01:37:34;;;;;;;;;;;;;;;;;;2065086;28;19939;-77
2023/08/07 01:38:54;;;;;;;;;;;;;;;;;;2075280;28;19913;-77
2023/08/07 01:40:15;;;;;;;;;;;;;;;;;;2078120;28;19910;-77
2023/08/07 01:41:36;;;;;;;;;;;;;;;;;;2072492;28;20349;-77
2023/08/07 01:42:56;;;;;;;;;;;;;;;;;;2073311;28;20226;-77
2023/08/07 01:44:17;;;;;;;;;;;;;;;;;;2073413;28;19910;-77
2023/08/07 01:45:38;;;;;;;;;;;;;;;;;;2072786;28;20389;-77
2023/08/07 01:46:58;;;;;;;;;;;;;;;;;;2074287;28;19913;-78
2023/08/07 01:48:19;;;;;;;;;;;;;;;;;;2072961;28;19909;-77
2023/08/07 01:49:40;;;;;;;;;;;;;;;;;;2074103;28;20313;-77
2023/08/07 01:51:01;;;;;;;;;;;;;;;;;;2080393;28;19924;-77
2023/08/07 01:52:21;;;;;;;;;;;;;;;;;;2080283;28;20321;-76
2023/08/07 01:53:42;;;;;;;;;;;;;;;;;;2078754;28;19920;-77
2023/08/07 01:55:03;;;;;;;;;;;;;;;;;;2081670;28;20376;-77
2023/08/07 01:56:23;;;;;;;;;;;;;;;;;;2073628;28;19913;-77
2023/08/07 01:57:44;;;;;;;;;;;;;;;;;;2089454;28;20365;-77
2023/08/07 01:59:05;;;;;;;;;;;;;;;;;;2088566;28;19913;-77
2023/08/07 02:00:25;;;;;;;;;;;;;;;;;;2082025;28;19972;-77
2023/08/07 02:01:46;;;;;;;;;;;;;;;;;;2086634;28;20296;-77
2023/08/07 02:03:07;;;;;;;;;;;;;;;;;;2089838;28;19909;-77
2023/08/07 02:04:27;;;;;;;;;;;;;;;;;;2088588;28;19909;-77
2023/08/07 02:05:48;;;;;;;;;;;;;;;;;;2086395;28;19974;-76
2023/08/07 02:07:09;;;;;;;;;;;;;;;;;;2086181;28;19940;-76
2023/08/07 02:08:30;;;;;;;;;;;;;;;;;;2090128;28;20368;-77
2023/08/07 02:09:50;;;;;;;;;;;;;;;;;;2089126;28;20288;-77
2023/08/07 02:11:11;;;;;;;;;;;;;;;;;;2088448;28;19913;-77
2023/08/07 02:12:32;;;;;;;;;;;;;;;;;;2082184;28;19921;-77
2023/08/07 02:13:52;;;;;;;;;;;;;;;;;;2082452;28;19928;-77
2023/08/07 02:15:13;;;;;;;;;;;;;;;;;;2081922;28;19909;-77
2023/08/07 02:16:34;;;;;;;;;;;;;;;;;;2076738;28;20399;-77
2023/08/07 02:17:54;;;;;;;;;;;;;;;;;;2078253;28;19913;-77
2023/08/07 02:19:15;;;;;;;;;;;;;;;;;;2087724;28;19913;-77
2023/08/07 02:20:36;;;;;;;;;;;;;;;;;;2077907;28;19913;-77
2023/08/07 02:21:56;;;;;;;;;;;;;;;;;;2077976;28;19987;-76
2023/08/07 02:23:17;;;;;;;;;;;;;;;;;;2078821;28;19910;-76
2023/08/07 02:24:38;;;;;;;;;;;;;;;;;;2078596;28;20023;-77
2023/08/07 02:25:58;;;;;;;;;;;;;;;;;;2077261;28;19984;-77
2023/08/07 02:27:19;;;;;;;;;;;;;;;;;;2078318;28;19913;-77
2023/08/07 02:28:40;;;;;;;;;;;;;;;;;;2086325;28;19916;-77
2023/08/07 02:30:03;;;;;;;;;;;;;;;;;;2081373;28;19909;-76
2023/08/07 02:31:23;;;;;;;;;;;;;;;;;;2074659;28;20288;-77
2023/08/07 02:32:44;;;;;;;;;;;;;;;;;;2070176;28;19925;-76
2023/08/07 02:34:05;;;;;;;;;;;;;;;;;;2079228;28;19913;-77
2023/08/07 02:35:26;;;;;;;;;;;;;;;;;;2081210;28;19917;-77
2023/08/07 02:36:46;;;;;;;;;;;;;;;;;;2073196;28;19909;-76
2023/08/07 02:38:07;;;;;;;;;;;;;;;;;;2079214;28;19910;-77
2023/08/07 02:39:28;;;;;;;;;;;;;;;;;;2080449;28;20300;-76
2023/08/07 02:40:48;;;;;;;;;;;;;;;;;;2086311;28;19915;-77
2023/08/07 02:42:09;;;;;;;;;;;;;;;;;;2089019;28;19951;-77
2023/08/07 02:43:32;;;;;;;;;;;;;;;;;;2080671;28;19915;-77
2023/08/07 02:44:53;;;;;;;;;;;;;;;;;;2078313;28;19917;-77
2023/08/07 02:46:14;;;;;;;;;;;;;;;;;;2077880;28;20411;-76
2023/08/07 02:47:35;;;;;;;;;;;;;;;;;;2077598;28;19913;-77
2023/08/07 02:48:55;;;;;;;;;;;;;;;;;;2086431;28;19986;-77
2023/08/07 02:50:16;;;;;;;;;;;;;;;;;;2084149;28;19917;-77
2023/08/07 02:51:37;;;;;;;;;;;;;;;;;;2094514;28;19925;-77
2023/08/07 02:52:57;;;;;;;;;;;;;;;;;;2084743;28;19959;-77
2023/08/07 02:54:18;;;;;;;;;;;;;;;;;;2079002;28;19913;-77
2023/08/07 02:55:39;;;;;;;;;;;;;;;;;;2087572;28;19909;-77
2023/08/07 02:56:59;;;;;;;;;;;;;;;;;;2082333;28;19920;-76
2023/08/07 02:58:20;;;;;;;;;;;;;;;;;;2088394;28;19909;-77
2023/08/07 02:59:41;;;;;;;;;;;;;;;;;;2090704;28;19908;-76
2023/08/07 03:01:01;;;;;;;;;;;;;;;;;;2089964;28;20339;-76
2023/08/07 03:02:22;;;;;;;;;;;;;;;;;;2090615;28;19909;-77
2023/08/07 03:03:43;;;;;;;;;;;;;;;;;;2090828;28;19916;-77
2023/08/07 03:05:03;;;;;;;;;;;;;;;;;;2090500;28;19909;-77
2023/08/07 03:06:24;;;;;;;;;;;;;;;;;;2090454;28;19935;-77
2023/08/07 03:07:45;;;;;;;;;;;;;;;;;;2090181;28;19995;-76
2023/08/07 03:09:05;;;;;;;;;;;;;;;;;;2087211;28;19920;-77
2023/08/07 03:10:26;;;;;;;;;;;;;;;;;;2081718;28;19910;-76
2023/08/07 03:11:47;;;;;;;;;;;;;;;;;;2086806;28;19940;-77
2023/08/07 03:13:07;;;;;;;;;;;;;;;;;;2080977;28;19916;-77
2023/08/07 03:14:28;;;;;;;;;;;;;;;;;;2087660;28;20761;-77
2023/08/07 03:15:50;;;;;;;;;;;;;;;;;;2081669;28;19928;-77
2023/08/07 03:17:10;;;;;;;;;;;;;;;;;;2079188;28;19909;-75
2023/08/07 03:18:31;;;;;;;;;;;;;;;;;;2088332;28;19909;-77
2023/08/07 03:19:52;;;;;;;;;;;;;;;;;;2090919;28;19916;-77
2023/08/07 03:21:13;;;;;;;;;;;;;;;;;;2090216;28;19909;-77
2023/08/07 03:22:33;;;;;;;;;;;;;;;;;;2090061;28;19920;-78
2023/08/07 03:23:54;;;;;;;;;;;;;;;;;;2090868;28;19920;-77
2023/08/07 03:25:15;;;;;;;;;;;;;;;;;;2090709;28;19920;-77
2023/08/07 03:26:35;;;;;;;;;;;;;;;;;;2090882;28;19913;-77
2023/08/07 03:27:56;;;;;;;;;;;;;;;;;;2081692;28;20431;-77
2023/08/07 03:29:17;;;;;;;;;;;;;;;;;;2087930;28;19917;-77
2023/08/07 03:30:38;;;;;;;;;;;;;;;;;;2080529;28;19995;-77
2023/08/07 03:31:58;;;;;;;;;;;;;;;;;;2077869;28;19933;-77
2023/08/07 03:33:19;;;;;;;;;;;;;;;;;;2081771;28;19916;-77
2023/08/07 03:34:40;;;;;;;;;;;;;;;;;;2083306;28;19910;-76
2023/08/07 03:36:00;;;;;;;;;;;;;;;;;;2091028;28;19924;-77
2023/08/07 03:37:21;;;;;;;;;;;;;;;;;;2090333;28;19909;-77
2023/08/07 03:38:42;;;;;;;;;;;;;;;;;;2081779;28;20400;-76
2023/08/07 03:40:02;;;;;;;;;;;;;;;;;;2088473;28;19913;-77
2023/08/07 03:41:24;;;;;;;;;;;;;;;;;;2090515;28;20327;-77
2023/08/07 03:42:44;;;;;;;;;;;;;;;;;;2091460;28;19909;-77
2023/08/07 03:44:06;;;;;;;;;;;;;;;;;;2090912;28;19913;-77
2023/08/07 03:45:27;;;;;;;;;;;;;;;;;;2091228;28;19912;-77
2023/08/07 03:46:48;;;;;;;;;;;;;;;;;;2081280;28;19909;-76
2023/08/07 03:48:08;;;;;;;;;;;;;;;;;;2077276;28;19917;-77
2023/08/07 03:49:29;;;;;;;;;;;;;;;;;;2073812;28;19920;-76
2023/08/07 03:50:50;;;;;;;;;;;;;;;;;;2031321;28;1763554;-77
2023/08/07 03:52:11;;;;;;;;;;;;;;;;;;2097645;28;19924;-76
2023/08/07 03:53:31;;;;;;;;;;;;;;;;;;2078636;28;20385;-77
2023/08/07 03:54:52;;;;;;;;;;;;;;;;;;2085815;28;20272;-77
2023/08/07 03:56:13;;;;;;;;;;;;;;;;;;2083036;28;19909;-77
2023/08/07 03:57:33;;;;;;;;;;;;;;;;;;2080870;28;19909;-77
2023/08/07 03:58:54;;;;;;;;;;;;;;;;;;2074275;28;19909;-77
2023/08/07 04:00:15;;;;;;;;;;;;;;;;;;2080456;28;20544;-77
2023/08/07 04:01:36;;;;;;;;;;;;;;;;;;2081875;28;20304;-77
2023/08/07 04:02:56;;;;;;;;;;;;;;;;;;2073721;28;19921;-77
2023/08/07 04:04:17;;;;;;;;;;;;;;;;;;2077101;28;19916;-78
2023/08/07 04:05:38;;;;;;;;;;;;;;;;;;2087726;28;19916;-77
2023/08/07 04:06:59;;;;;;;;;;;;;;;;;;2089945;28;19913;-77
2023/08/07 04:08:19;;;;;;;;;;;;;;;;;;2081407;28;20313;-77
2023/08/07 04:09:40;;;;;;;;;;;;;;;;;;2074088;28;19909;-77
2023/08/07 04:11:01;;;;;;;;;;;;;;;;;;2079082;28;19913;-77
2023/08/07 04:12:22;;;;;;;;;;;;;;;;;;2090507;28;19916;-77
2023/08/07 04:13:43;;;;;;;;;;;;;;;;;;2080947;28;19980;-77
2023/08/07 04:15:04;;;;;;;;;;;;;;;;;;2087987;28;19916;-77
2023/08/07 04:16:24;;;;;;;;;;;;;;;;;;2090654;28;19972;-77
2023/08/07 04:17:45;;;;;;;;;;;;;;;;;;2090551;28;19913;-77
2023/08/07 04:19:07;;;;;;;;;;;;;;;;;;2081366;28;19936;-77
2023/08/07 04:20:28;;;;;;;;;;;;;;;;;;2088837;28;19913;-76
2023/08/07 04:21:48;;;;;;;;;;;;;;;;;;2088585;28;19943;-77
2023/08/07 04:23:09;;;;;;;;;;;;;;;;;;2072294;28;19913;-77
2023/08/07 04:24:30;;;;;;;;;;;;;;;;;;2079018;28;19951;-77
2023/08/07 04:25:50;;;;;;;;;;;;;;;;;;2080430;28;20372;-77
2023/08/07 04:27:12;;;;;;;;;;;;;;;;;;2078946;28;19916;-76
2023/08/07 04:28:32;;;;;;;;;;;;;;;;;;2087710;28;19916;-77
2023/08/07 04:29:53;;;;;;;;;;;;;;;;;;2086128;28;19909;-77
2023/08/07 04:31:14;;;;;;;;;;;;;;;;;;2080456;28;19909;-76
2023/08/07 04:32:34;;;;;;;;;;;;;;;;;;2087437;28;19917;-77
2023/08/07 04:33:55;;;;;;;;;;;;;;;;;;2081832;28;19928;-77
2023/08/07 04:35:16;;;;;;;;;;;;;;;;;;2078807;28;20315;-77
2023/08/07 04:36:36;;;;;;;;;;;;;;;;;;2087566;28;19920;-77
2023/08/07 04:37:57;;;;;;;;;;;;;;;;;;2090528;28;20238;-74
2023/08/07 04:39:18;;;;;;;;;;;;;;;;;;2083244;28;19909;-76
2023/08/07 04:40:39;;;;;;;;;;;;;;;;;;2081833;28;19909;-77
2023/08/07 04:41:59;;;;;;;;;;;;;;;;;;2082148;28;20288;-76
2023/08/07 04:43:20;;;;;;;;;;;;;;;;;;2082345;28;19916;-77
2023/08/07 04:44:41;;;;;;;;;;;;;;;;;;2082835;28;20261;-77
2023/08/07 04:46:02;;;;;;;;;;;;;;;;;;2082281;28;19909;-76
2023/08/07 04:47:22;;;;;;;;;;;;;;;;;;2086565;28;19936;-77
2023/08/07 04:48:43;;;;;;;;;;;;;;;;;;2081699;28;19909;-77
2023/08/07 04:50:04;;;;;;;;;;;;;;;;;;2084813;28;19915;-77
2023/08/07 04:51:24;;;;;;;;;;;;;;;;;;2072846;28;19929;-77
2023/08/07 04:52:45;;;;;;;;;;;;;;;;;;2076174;28;19925;-77
2023/08/07 04:54:06;;;;;;;;;;;;;;;;;;2087669;28;19913;-76
2023/08/07 04:55:27;;;;;;;;;;;;;;;;;;2090419;28;19913;-77
2023/08/07 04:56:48;;;;;;;;;;;;;;;;;;2090180;28;20317;-77
2023/08/07 04:58:08;;;;;;;;;;;;;;;;;;2090054;28;20356;-77
2023/08/07 04:59:30;;;;;;;;;;;;;;;;;;2081198;28;19972;-77
2023/08/07 05:00:51;;;;;;;;;;;;;;;;;;2087966;28;20268;-77
2023/08/07 05:02:12;;;;;;;;;;;;;;;;;;2080441;28;19921;-76
2023/08/07 05:03:32;;;;;;;;;;;;;;;;;;2081407;28;19909;-76
2023/08/07 05:04:53;;;;;;;;;;;;;;;;;;2087575;28;19909;-76
2023/08/07 05:06:14;;;;;;;;;;;;;;;;;;2081849;28;19910;-76
2023/08/07 05:07:35;;;;;;;;;;;;;;;;;;2073582;28;19924;-76
2023/08/07 05:08:55;;;;;;;;;;;;;;;;;;2071603;28;19960;-76
2023/08/07 05:10:16;;;;;;;;;;;;;;;;;;2078980;28;19909;-77
2023/08/07 05:11:37;;;;;;;;;;;;;;;;;;2084145;28;20210;-76
2023/08/07 05:12:57;;;;;;;;;;;;;;;;;;2087740;28;19970;-76
2023/08/07 05:14:18;;;;;;;;;;;;;;;;;;2088543;28;19909;-76
2023/08/07 05:15:40;;;;;;;;;;;;;;;;;;2089116;28;19909;-77
2023/08/07 05:17:01;;;;;;;;;;;;;;;;;;2090081;28;19909;-77
2023/08/07 05:18:21;;;;;;;;;;;;;;;;;;2088457;28;19916;-76
2023/08/07 05:19:42;;;;;;;;;;;;;;;;;;2089400;28;19909;-77
2023/08/07 05:21:03;;;;;;;;;;;;;;;;;;2091063;28;19913;-77
2023/08/07 05:22:24;;;;;;;;;;;;;;;;;;2090330;28;20288;-77
2023/08/07 05:23:44;;;;;;;;;;;;;;;;;;2081209;28;19916;-76
2023/08/07 05:25:05;;;;;;;;;;;;;;;;;;2078874;28;19920;-76
2023/08/07 05:26:26;;;;;;;;;;;;;;;;;;2087904;28;19913;-77
2023/08/07 05:27:47;;;;;;;;;;;;;;;;;;2080864;28;19909;-77
2023/08/07 05:29:07;;;;;;;;;;;;;;;;;;2086618;28;19909;-77
2023/08/07 05:30:28;;;;;;;;;;;;;;;;;;2081150;28;19936;-77
2023/08/07 05:31:50;;;;;;;;;;;;;;;;;;2073485;28;20009;-77
2023/08/07 05:33:10;;;;;;;;;;;;;;;;;;2078994;28;19917;-77
2023/08/07 05:34:31;;;;;;;;;;;;;;;;;;2081648;28;19947;-77
2023/08/07 05:35:52;;;;;;;;;;;;;;;;;;2081450;28;19909;-77
2023/08/07 05:37:13;;;;;;;;;;;;;;;;;;2076079;28;19956;-77
2023/08/07 05:38:34;;;;;;;;;;;;;;;;;;2079937;28;19916;-76
2023/08/07 05:39:54;;;;;;;;;;;;;;;;;;2094653;28;19909;-76
2023/08/07 05:41:16;;;;;;;;;;;;;;;;;;2088717;28;20292;-76
2023/08/07 05:42:36;;;;;;;;;;;;;;;;;;2085838;28;19916;-77
2023/08/07 05:43:57;;;;;;;;;;;;;;;;;;2095909;28;19908;-77
2023/08/07 05:45:18;;;;;;;;;;;;;;;;;;2088709;28;20272;-76
2023/08/07 05:46:39;;;;;;;;;;;;;;;;;;2086164;28;19909;-77
2023/08/07 05:47:59;;;;;;;;;;;;;;;;;;2079331;28;19909;-77
2023/08/07 05:49:20;;;;;;;;;;;;;;;;;;2072839;28;19909;-76
2023/08/07 05:50:41;;;;;;;;;;;;;;;;;;2087770;28;20372;-77
2023/08/07 05:52:01;;;;;;;;;;;;;;;;;;2090126;28;19913;-77
2023/08/07 05:53:22;;;;;;;;;;;;;;;;;;2081459;28;19920;-76
2023/08/07 05:54:43;;;;;;;;;;;;;;;;;;2081303;28;20284;-76
2023/08/07 05:56:03;;;;;;;;;;;;;;;;;;2087089;28;19916;-77
2023/08/07 05:57:24;;;;;;;;;;;;;;;;;;2080877;28;19913;-77
2023/08/07 05:58:45;;;;;;;;;;;;;;;;;;2087372;28;19909;-76
2023/08/07 06:00:06;;;;;;;;;;;;;;;;;;2080861;28;19913;-77
2023/08/07 06:01:30;;;;;;;;;;;;;;;;;;2080874;28;19928;-77
2023/08/07 06:02:51;;;;;;;;;;;;;;;;;;2080352;28;19921;-76
2023/08/07 06:04:12;;;;;;;;;;;;;;;;;;2073352;28;19969;-77
2023/08/07 06:05:32;;;;;;;;;;;;;;;;;;2080736;28;20305;-77
2023/08/07 06:06:53;;;;;;;;;;;;;;;;;;2090263;28;19909;-77
2023/08/07 06:08:14;;;;;;;;;;;;;;;;;;2080518;28;19909;-77
2023/08/07 06:09:34;;;;;;;;;;;;;;;;;;2087729;28;20299;-76
2023/08/07 06:10:55;;;;;;;;;;;;;;;;;;2090032;28;19916;-77
2023/08/07 06:12:16;;;;;;;;;;;;;;;;;;2089947;28;19913;-75
2023/08/07 06:13:36;;;;;;;;;;;;;;;;;;2080429;28;19909;-77
2023/08/07 06:14:57;;;;;;;;;;;;;;;;;;2078993;28;19909;-77
2023/08/07 06:16:18;;;;;;;;;;;;;;;;;;2086180;28;19913;-76
2023/08/07 06:17:39;;;;;;;;;;;;;;;;;;2080766;28;19975;-75
2023/08/07 06:18:59;;;;;;;;;;;;;;;;;;2078647;28;19910;-76
2023/08/07 06:20:21;;;;;;;;;;;;;;;;;;2086032;28;19909;-76
2023/08/07 06:21:41;;;;;;;;;;;;;;;;;;2088910;28;19908;-76
2023/08/07 06:23:02;;;;;;;;;;;;;;;;;;2087910;28;19924;-76
2023/08/07 06:24:25;;;;;;;;;;;;;;;;;;2072761;28;19910;-75
2023/08/07 06:25:45;;;;;;;;;;;;;;;;;;2080211;28;19910;-76
2023/08/07 06:27:06;;;;;;;;;;;;;;;;;;2089755;28;19923;-75
2023/08/07 06:28:27;;;;;;;;;;;;;;;;;;2080483;28;19909;-76
2023/08/07 06:29:47;;;;;;;;;;;;;;;;;;2080940;28;19910;-76
2023/08/07 06:31:08;;;;;;;;;;;;;;;;;;2086374;28;20451;-77
2023/08/07 06:32:29;;;;;;;;;;;;;;;;;;2079632;28;19917;-76
2023/08/07 06:33:49;;;;;;;;;;;;;;;;;;2087541;28;19928;-76
2023/08/07 06:35:10;;;;;;;;;;;;;;;;;;2089270;28;19916;-76
2023/08/07 06:36:31;;;;;;;;;;;;;;;;;;2090182;28;19909;-76
2023/08/07 06:37:52;;;;;;;;;;;;;;;;;;2089741;28;19909;-76
2023/08/07 06:39:12;;;;;;;;;;;;;;;;;;2097220;28;19908;-76
2023/08/07 06:40:33;;;;;;;;;;;;;;;;;;2088198;28;20293;-76
2023/08/07 06:41:54;;;;;;;;;;;;;;;;;;2095475;28;19908;-77
2023/08/07 06:43:14;;;;;;;;;;;;;;;;;;2087968;28;20394;-76
2023/08/07 06:44:35;;;;;;;;;;;;;;;;;;2089761;28;19916;-76
2023/08/07 06:45:56;;;;;;;;;;;;;;;;;;2089270;28;20354;-77
2023/08/07 06:47:17;;;;;;;;;;;;;;;;;;2089853;28;19915;-77
2023/08/07 06:48:37;;;;;;;;;;;;;;;;;;2079508;28;20270;-76
2023/08/07 06:49:58;;;;;;;;;;;;;;;;;;2081420;28;19927;-76
2023/08/07 06:51:19;;;;;;;;;;;;;;;;;;2087678;28;20325;-76
2023/08/07 06:52:40;;;;;;;;;;;;;;;;;;2079744;28;19917;-76
2023/08/07 06:54:00;;;;;;;;;;;;;;;;;;2077652;28;19920;-76
2023/08/07 06:55:21;;;;;;;;;;;;;;;;;;2086850;28;19924;-76
2023/08/07 06:56:43;;;;;;;;;;;;;;;;;;2089096;28;19909;-76
2023/08/07 06:58:04;;;;;;;;;;;;;;;;;;2080464;28;20312;-76
2023/08/07 06:59:25;;;;;;;;;;;;;;;;;;2086606;28;19916;-76
2023/08/07 07:00:46;;;;;;;;;;;;;;;;;;2089464;28;20284;-77
2023/08/07 07:02:06;;;;;;;;;;;;;;;;;;2094671;28;19919;-76
2023/08/07 07:03:27;;;;;;;;;;;;;;;;;;2096754;28;19920;-77
2023/08/07 07:04:48;;;;;;;;;;;;;;;;;;2097182;28;19912;-77
2023/08/07 07:06:08;;;;;;;;;;;;;;;;;;2097119;28;19908;-75
2023/08/07 07:07:29;;;;;;;;;;;;;;;;;;2096768;28;19908;-76
2023/08/07 07:08:50;;;;;;;;;;;;;;;;;;2088418;28;19913;-77
2023/08/07 07:10:10;;;;;;;;;;;;;;;;;;2085508;28;19971;-76
2023/08/07 07:11:31;;;;;;;;;;;;;;;;;;2085949;28;19909;-76
2023/08/07 07:12:52;;;;;;;;;;;;;;;;;;2080608;28;19917;-77
2023/08/07 07:14:13;;;;;;;;;;;;;;;;;;2086659;28;19975;-77
2023/08/07 07:15:33;;;;;;;;;;;;;;;;;;2080832;28;19909;-76
2023/08/07 07:16:54;;;;;;;;;;;;;;;;;;2086604;28;19909;-76
2023/08/07 07:18:15;;;;;;;;;;;;;;;;;;2087455;28;19920;-76
2023/08/07 07:19:35;;;;;;;;;;;;;;;;;;2088884;28;20261;-76
2023/08/07 07:20:56;;;;;;;;;;;;;;;;;;2078972;28;19913;-76
2023/08/07 07:22:17;;;;;;;;;;;;;;;;;;2077759;28;19913;-76
2023/08/07 07:23:37;;;;;;;;;;;;;;;;;;2076829;28;20365;-76
2023/08/07 07:24:58;;;;;;;;;;;;;;;;;;2087534;28;19916;-76
2023/08/07 07:26:19;;;;;;;;;;;;;;;;;;2080374;28;20276;-76
2023/08/07 07:27:40;;;;;;;;;;;;;;;;;;2078315;28;19909;-76
2023/08/07 07:29:01;;;;;;;;;;;;;;;;;;2086866;28;19916;-76
2023/08/07 07:30:22;;;;;;;;;;;;;;;;;;2080200;28;19988;-76
2023/08/07 07:31:42;;;;;;;;;;;;;;;;;;2082616;28;20315;-76
2023/08/07 07:33:03;;;;;;;;;;;;;;;;;;2079729;28;20376;-77
2023/08/07 07:34:24;;;;;;;;;;;;;;;;;;2077907;28;19909;-76
2023/08/07 07:35:44;;;;;;;;;;;;;;;;;;2087537;28;19916;-76
2023/08/07 07:37:05;;;;;;;;;;;;;;;;;;2082118;28;19909;-77
2023/08/07 07:38:26;;;;;;;;;;;;;;;;;;2089791;28;20298;-77
2023/08/07 07:39:47;;;;;;;;;;;;;;;;;;2091394;28;19913;-76
2023/08/07 07:41:11;;;;;;;;;;;;;;;;;;2090720;28;19990;-76
2023/08/07 07:42:31;;;;;;;;;;;;;;;;;;2089674;28;19908;-76
2023/08/07 07:43:52;;;;;;;;;;;;;;;;;;2087126;28;20376;-76
2023/08/07 07:45:13;;;;;;;;;;;;;;;;;;2090849;28;19908;-77
2023/08/07 07:46:33;;;;;;;;;;;;;;;;;;2090676;28;19909;-76
2023/08/07 07:47:54;;;;;;;;;;;;;;;;;;2087886;28;19909;-76
2023/08/07 07:49:15;;;;;;;;;;;;;;;;;;2087221;28;19916;-76
2023/08/07 07:50:35;;;;;;;;;;;;;;;;;;2086320;28;19912;-77
2023/08/07 07:51:56;;;;;;;;;;;;;;;;;;2087926;28;19919;-76
2023/08/07 07:53:17;;;;;;;;;;;;;;;;;;2086637;28;19928;-76
2023/08/07 07:54:37;;;;;;;;;;;;;;;;;;2071692;28;19916;-77
2023/08/07 07:55:58;;;;;;;;;;;;;;;;;;2080344;28;19909;-77
2023/08/07 07:57:19;;;;;;;;;;;;;;;;;;2091819;28;20355;-77
2023/08/07 07:58:40;;;;;;;;;;;;;;;;;;2081486;28;19909;-76
2023/08/07 08:00:02;;;;;;;;;;;;;;;;;;2079297;28;20003;-76
2023/08/07 08:01:23;;;;;;;;;;;;;;;;;;2078986;28;19913;-76
2023/08/07 08:02:44;;;;;;;;;;;;;;;;;;2078917;28;19920;-77
2023/08/07 08:04:04;;;;;;;;;;;;;;;;;;2079339;28;19906;-76
2023/08/07 08:05:25;;;;;;;;;;;;;;;;;;2088806;28;19909;-76
2023/08/07 08:06:48;;;;;;;;;;;;;;;;;;2090454;28;19909;-77
2023/08/07 08:08:08;;;;;;;;;;;;;;;;;;2081866;28;19909;-78
2023/08/07 08:09:29;;;;;;;;;;;;;;;;;;2088924;28;20273;-78
2023/08/07 08:10:51;;;;;;;;;;;;;;;;;;2091481;28;19908;-79
2023/08/07 08:12:11;;;;;;;;;;;;;;;;;;2082131;28;19932;-79
2023/08/07 08:13:33;;;;;;;;;;;;;;;;;;2086722;28;19924;-77
2023/08/07 08:14:54;;;;;;;;;;;;;;;;;;2080423;28;19909;-79
2023/08/07 08:16:14;;;;;;;;;;;;;;;;;;2079167;28;19909;-78
2023/08/07 08:17:35;;;;;;;;;;;;;;;;;;2087409;28;19909;-78
2023/08/07 08:18:56;;;;;;;;;;;;;;;;;;2081450;28;20230;-78
2023/08/07 08:20:18;;;;;;;;;;;;;;;;;;2082621;28;19967;-78
2023/08/07 08:21:39;;;;;;;;;;;;;;;;;;2086766;28;19920;-78
2023/08/07 08:22:59;;;;;;;;;;;;;;;;;;2081844;28;19916;-78
2023/08/07 08:24:20;;;;;;;;;;;;;;;;;;2088424;28;19913;-78
2023/08/07 08:25:41;;;;;;;;;;;;;;;;;;2088642;28;20070;-78
2023/08/07 08:27:02;;;;;;;;;;;;;;;;;;2090032;28;19909;-79
2023/08/07 08:28:22;;;;;;;;;;;;;;;;;;2089512;28;19920;-79
2023/08/07 08:29:43;;;;;;;;;;;;;;;;;;2089658;28;19916;-79
2023/08/07 08:31:04;;;;;;;;;;;;;;;;;;2090632;28;19924;-79
2023/08/07 08:32:24;;;;;;;;;;;;;;;;;;2080874;28;19909;-79
2023/08/07 08:33:45;;;;;;;;;;;;;;;;;;2081681;28;19917;-79
2023/08/07 08:35:06;;;;;;;;;;;;;;;;;;2073403;28;19913;-79
2023/08/07 08:36:26;;;;;;;;;;;;;;;;;;2071235;28;19913;-79
2023/08/07 08:37:47;;;;;;;;;;;;;;;;;;2070774;28;19913;-79
2023/08/07 08:39:08;;;;;;;;;;;;;;;;;;2080035;28;20240;-78
2023/08/07 08:40:29;;;;;;;;;;;;;;;;;;2072967;28;20345;-80
2023/08/07 08:41:50;;;;;;;;;;;;;;;;;;2080087;28;19932;-79
2023/08/07 08:43:10;;;;;;;;;;;;;;;;;;2072305;28;20419;-79
2023/08/07 08:44:32;;;;;;;;;;;;;;;;;;2071125;28;19910;-79
2023/08/07 08:45:52;;;;;;;;;;;;;;;;;;2075501;28;19924;-79
2023/08/07 08:47:13;;;;;;;;;;;;;;;;;;2080140;28;19932;-79
2023/08/07 08:48:34;;;;;;;;;;;;;;;;;;2087569;28;19913;-80
2023/08/07 08:49:54;;;;;;;;;;;;;;;;;;2089718;28;19909;-80
2023/08/07 08:51:17;;;;;;;;;;;;;;;;;;2081242;28;19928;-79
2023/08/07 08:52:38;;;;;;;;;;;;;;;;;;2079268;28;19910;-79
2023/08/07 08:53:59;;;;;;;;;;;;;;;;;;2078487;28;19924;-79
2023/08/07 08:55:19;;;;;;;;;;;;;;;;;;2071269;28;19932;-78
2023/08/07 08:56:40;;;;;;;;;;;;;;;;;;2081686;28;19917;-79
2023/08/07 08:58:01;;;;;;;;;;;;;;;;;;2082663;28;19913;-79
2023/08/07 08:59:22;;;;;;;;;;;;;;;;;;2079594;28;20424;-80
2023/08/07 09:00:43;;;;;;;;;;;;;;;;;;2087796;28;19909;-79
2023/08/07 09:02:03;;;;;;;;;;;;;;;;;;2080732;28;20241;-80
2023/08/07 09:03:24;;;;;;;;;;;;;;;;;;2078955;28;19914;-79
2023/08/07 09:04:45;;;;;;;;;;;;;;;;;;2078749;28;20365;-79
2023/08/07 09:06:06;;;;;;;;;;;;;;;;;;2087277;28;19916;-79
2023/08/07 09:07:27;;;;;;;;;;;;;;;;;;2081225;28;19913;-79
2023/08/07 09:08:49;;;;;;;;;;;;;;;;;;2079883;28;19910;-80
2023/08/07 09:10:13;;;;;;;;;;;;;;;;;;2088287;28;19909;-79
2023/08/07 09:11:34;;;;;;;;;;;;;;;;;;2080939;28;19916;-83